Aviation Digital Data Service (ADDS)

Output produced by METARs form (0330 UTC 29 November 2014)
found at http://aviationweather.gov/adds/metars/
 
KFAY 282335Z 2900/2924 00000KT P6SM SKC 
     FM291600 21010G16KT P6SM SKC